sensor_id;sensor_type;location;lat;lon;timestamp;P1;durP1;ratioP1;P2;durP2;ratioP2
12445;SDS011;6287;50.984;7.022;2022-12-11T00:02:19;26.93;;;9.70;;
12445;SDS011;6287;50.984;7.022;2022-12-11T00:04:45;24.60;;;9.83;;
12445;SDS011;6287;50.984;7.022;2022-12-11T00:07:10;25.70;;;10.77;;
12445;SDS011;6287;50.984;7.022;2022-12-11T00:09:38;24.67;;;10.80;;
12445;SDS011;6287;50.984;7.022;2022-12-11T00:12:06;30.13;;;10.90;;
12445;SDS011;6287;50.984;7.022;2022-12-11T00:14:34;28.03;;;11.07;;
12445;SDS011;6287;50.984;7.022;2022-12-11T00:17:00;27.93;;;11.30;;
12445;SDS011;6287;50.984;7.022;2022-12-11T00:19:25;28.70;;;10.87;;
12445;SDS011;6287;50.984;7.022;2022-12-11T00:21:51;30.17;;;11.83;;
12445;SDS011;6287;50.984;7.022;2022-12-11T00:24:18;24.23;;;10.77;;
12445;SDS011;6287;50.984;7.022;2022-12-11T00:26:44;30.87;;;10.93;;
12445;SDS011;6287;50.984;7.022;2022-12-11T00:29:12;29.17;;;10.13;;
12445;SDS011;6287;50.984;7.022;2022-12-11T00:31:39;27.80;;;10.07;;
12445;SDS011;6287;50.984;7.022;2022-12-11T00:34:05;22.30;;;10.77;;
12445;SDS011;6287;50.984;7.022;2022-12-11T00:36:34;27.87;;;10.63;;
12445;SDS011;6287;50.984;7.022;2022-12-11T00:39:04;35.10;;;11.00;;
12445;SDS011;6287;50.984;7.022;2022-12-11T00:41:32;30.97;;;11.40;;
12445;SDS011;6287;50.984;7.022;2022-12-11T00:43:58;38.07;;;11.87;;
12445;SDS011;6287;50.984;7.022;2022-12-11T00:46:23;32.77;;;12.30;;
12445;SDS011;6287;50.984;7.022;2022-12-11T00:48:49;36.30;;;12.60;;
12445;SDS011;6287;50.984;7.022;2022-12-11T00:51:15;41.87;;;12.70;;
12445;SDS011;6287;50.984;7.022;2022-12-11T00:53:46;34.27;;;12.70;;
12445;SDS011;6287;50.984;7.022;2022-12-11T00:56:15;39.40;;;13.10;;
12445;SDS011;6287;50.984;7.022;2022-12-11T00:58:46;32.30;;;11.93;;
12445;SDS011;6287;50.984;7.022;2022-12-11T01:01:14;35.53;;;12.47;;
12445;SDS011;6287;50.984;7.022;2022-12-11T01:03:42;35.90;;;13.80;;
12445;SDS011;6287;50.984;7.022;2022-12-11T01:06:11;41.90;;;12.90;;
12445;SDS011;6287;50.984;7.022;2022-12-11T01:08:44;38.47;;;12.73;;
12445;SDS011;6287;50.984;7.022;2022-12-11T01:11:11;35.30;;;13.40;;
12445;SDS011;6287;50.984;7.022;2022-12-11T01:13:39;37.13;;;14.03;;
12445;SDS011;6287;50.984;7.022;2022-12-11T01:16:12;43.93;;;12.60;;
12445;SDS011;6287;50.984;7.022;2022-12-11T01:18:39;37.17;;;12.27;;
12445;SDS011;6287;50.984;7.022;2022-12-11T01:21:11;41.03;;;12.93;;
12445;SDS011;6287;50.984;7.022;2022-12-11T01:23:38;40.27;;;13.20;;
12445;SDS011;6287;50.984;7.022;2022-12-11T01:26:07;35.53;;;12.33;;
12445;SDS011;6287;50.984;7.022;2022-12-11T01:28:35;43.80;;;13.93;;
12445;SDS011;6287;50.984;7.022;2022-12-11T01:31:01;42.30;;;13.53;;
12445;SDS011;6287;50.984;7.022;2022-12-11T01:33:34;39.27;;;14.73;;
12445;SDS011;6287;50.984;7.022;2022-12-11T01:36:08;41.50;;;14.17;;
12445;SDS011;6287;50.984;7.022;2022-12-11T01:38:47;49.53;;;14.83;;
12445;SDS011;6287;50.984;7.022;2022-12-11T01:41:16;41.10;;;14.73;;
12445;SDS011;6287;50.984;7.022;2022-12-11T01:44:01;37.40;;;13.00;;
12445;SDS011;6287;50.984;7.022;2022-12-11T01:46:29;41.10;;;13.77;;
12445;SDS011;6287;50.984;7.022;2022-12-11T01:48:56;40.97;;;13.77;;
12445;SDS011;6287;50.984;7.022;2022-12-11T01:51:24;39.80;;;14.37;;
12445;SDS011;6287;50.984;7.022;2022-12-11T01:53:53;36.47;;;14.27;;
12445;SDS011;6287;50.984;7.022;2022-12-11T01:56:24;45.93;;;13.50;;
12445;SDS011;6287;50.984;7.022;2022-12-11T01:58:58;39.87;;;13.97;;
12445;SDS011;6287;50.984;7.022;2022-12-11T02:01:36;45.63;;;14.17;;
12445;SDS011;6287;50.984;7.022;2022-12-11T02:04:06;43.33;;;16.00;;
12445;SDS011;6287;50.984;7.022;2022-12-11T02:09:02;35.13;;;12.70;;
12445;SDS011;6287;50.984;7.022;2022-12-11T02:11:37;34.17;;;12.23;;
12445;SDS011;6287;50.984;7.022;2022-12-11T02:17:22;40.23;;;12.87;;
12445;SDS011;6287;50.984;7.022;2022-12-11T02:25:17;36.83;;;12.80;;
12445;SDS011;6287;50.984;7.022;2022-12-11T02:30:49;31.23;;;11.57;;
12445;SDS011;6287;50.984;7.022;2022-12-11T02:33:31;34.00;;;12.60;;
12445;SDS011;6287;50.984;7.022;2022-12-11T02:36:06;35.27;;;11.73;;
12445;SDS011;6287;50.984;7.022;2022-12-11T02:38:36;29.93;;;11.30;;
12445;SDS011;6287;50.984;7.022;2022-12-11T02:41:05;30.90;;;11.20;;
12445;SDS011;6287;50.984;7.022;2022-12-11T02:43:38;33.30;;;11.87;;
12445;SDS011;6287;50.984;7.022;2022-12-11T02:46:05;26.50;;;10.33;;
12445;SDS011;6287;50.984;7.022;2022-12-11T02:48:34;31.70;;;11.77;;
12445;SDS011;6287;50.984;7.022;2022-12-11T02:51:01;27.83;;;10.27;;
12445;SDS011;6287;50.984;7.022;2022-12-11T02:53:30;35.13;;;11.90;;
12445;SDS011;6287;50.984;7.022;2022-12-11T02:56:09;35.50;;;13.20;;
12445;SDS011;6287;50.984;7.022;2022-12-11T02:58:49;34.90;;;12.50;;
12445;SDS011;6287;50.984;7.022;2022-12-11T03:01:18;31.30;;;13.17;;
12445;SDS011;6287;50.984;7.022;2022-12-11T03:03:46;28.90;;;11.27;;
12445;SDS011;6287;50.984;7.022;2022-12-11T03:06:12;31.33;;;12.00;;
12445;SDS011;6287;50.984;7.022;2022-12-11T03:08:42;32.47;;;11.77;;
12445;SDS011;6287;50.984;7.022;2022-12-11T03:11:11;35.13;;;11.60;;
12445;SDS011;6287;50.984;7.022;2022-12-11T03:13:39;29.47;;;10.93;;
12445;SDS011;6287;50.984;7.022;2022-12-11T03:21:43;33.57;;;13.07;;
12445;SDS011;6287;50.984;7.022;2022-12-11T03:26:43;35.83;;;12.30;;
12445;SDS011;6287;50.984;7.022;2022-12-11T03:29:19;32.70;;;12.53;;
12445;SDS011;6287;50.984;7.022;2022-12-11T03:37:35;37.23;;;12.77;;
12445;SDS011;6287;50.984;7.022;2022-12-11T03:40:04;33.03;;;12.57;;
12445;SDS011;6287;50.984;7.022;2022-12-11T03:42:38;41.90;;;13.73;;
12445;SDS011;6287;50.984;7.022;2022-12-11T03:45:06;33.40;;;12.77;;
12445;SDS011;6287;50.984;7.022;2022-12-11T03:47:38;34.63;;;12.10;;
12445;SDS011;6287;50.984;7.022;2022-12-11T03:50:11;35.80;;;12.97;;
12445;SDS011;6287;50.984;7.022;2022-12-11T03:52:42;43.50;;;14.30;;
12445;SDS011;6287;50.984;7.022;2022-12-11T03:55:10;39.33;;;13.47;;
12445;SDS011;6287;50.984;7.022;2022-12-11T03:57:39;37.90;;;13.07;;
12445;SDS011;6287;50.984;7.022;2022-12-11T04:00:08;41.77;;;13.90;;
12445;SDS011;6287;50.984;7.022;2022-12-11T04:02:41;35.97;;;12.93;;
12445;SDS011;6287;50.984;7.022;2022-12-11T04:05:10;40.83;;;16.03;;
12445;SDS011;6287;50.984;7.022;2022-12-11T04:07:38;35.90;;;13.70;;
12445;SDS011;6287;50.984;7.022;2022-12-11T04:10:04;47.93;;;13.67;;
12445;SDS011;6287;50.984;7.022;2022-12-11T04:12:29;39.00;;;12.60;;
12445;SDS011;6287;50.984;7.022;2022-12-11T04:14:57;33.50;;;13.37;;
12445;SDS011;6287;50.984;7.022;2022-12-11T04:17:28;29.43;;;12.33;;
12445;SDS011;6287;50.984;7.022;2022-12-11T04:20:14;37.53;;;13.30;;
12445;SDS011;6287;50.984;7.022;2022-12-11T04:22:58;35.73;;;12.17;;
12445;SDS011;6287;50.984;7.022;2022-12-11T04:25:46;33.20;;;12.13;;
12445;SDS011;6287;50.984;7.022;2022-12-11T04:28:17;35.47;;;13.77;;
12445;SDS011;6287;50.984;7.022;2022-12-11T04:30:48;37.83;;;12.87;;
12445;SDS011;6287;50.984;7.022;2022-12-11T04:33:14;37.80;;;12.00;;
12445;SDS011;6287;50.984;7.022;2022-12-11T04:35:39;29.50;;;11.47;;
12445;SDS011;6287;50.984;7.022;2022-12-11T04:38:05;29.47;;;11.07;;
12445;SDS011;6287;50.984;7.022;2022-12-11T04:40:35;26.50;;;11.63;;
12445;SDS011;6287;50.984;7.022;2022-12-11T04:43:03;27.67;;;10.60;;
12445;SDS011;6287;50.984;7.022;2022-12-11T04:45:31;31.80;;;11.70;;
12445;SDS011;6287;50.984;7.022;2022-12-11T04:47:56;35.30;;;11.67;;
12445;SDS011;6287;50.984;7.022;2022-12-11T04:50:27;29.50;;;11.27;;
12445;SDS011;6287;50.984;7.022;2022-12-11T04:52:55;29.57;;;10.50;;
12445;SDS011;6287;50.984;7.022;2022-12-11T04:55:21;28.53;;;10.13;;
12445;SDS011;6287;50.984;7.022;2022-12-11T04:57:52;33.97;;;10.90;;
12445;SDS011;6287;50.984;7.022;2022-12-11T05:00:19;29.57;;;10.80;;
12445;SDS011;6287;50.984;7.022;2022-12-11T05:02:45;24.47;;;10.97;;
12445;SDS011;6287;50.984;7.022;2022-12-11T05:05:11;25.73;;;10.20;;
12445;SDS011;6287;50.984;7.022;2022-12-11T05:07:37;27.57;;;10.33;;
12445;SDS011;6287;50.984;7.022;2022-12-11T05:10:05;29.00;;;11.53;;
12445;SDS011;6287;50.984;7.022;2022-12-11T05:12:31;25.57;;;10.70;;
12445;SDS011;6287;50.984;7.022;2022-12-11T05:14:57;29.30;;;9.90;;
12445;SDS011;6287;50.984;7.022;2022-12-11T05:17:25;33.20;;;9.00;;
12445;SDS011;6287;50.984;7.022;2022-12-11T05:19:53;23.50;;;9.37;;
12445;SDS011;6287;50.984;7.022;2022-12-11T05:22:21;24.93;;;8.93;;
12445;SDS011;6287;50.984;7.022;2022-12-11T05:24:51;28.70;;;9.97;;
12445;SDS011;6287;50.984;7.022;2022-12-11T05:27:22;21.53;;;8.33;;
12445;SDS011;6287;50.984;7.022;2022-12-11T05:29:47;23.30;;;8.77;;
12445;SDS011;6287;50.984;7.022;2022-12-11T05:32:13;24.83;;;9.93;;
12445;SDS011;6287;50.984;7.022;2022-12-11T05:34:41;24.87;;;10.03;;
12445;SDS011;6287;50.984;7.022;2022-12-11T05:37:06;22.30;;;9.27;;
12445;SDS011;6287;50.984;7.022;2022-12-11T05:39:32;24.37;;;8.53;;
12445;SDS011;6287;50.984;7.022;2022-12-11T05:41:58;28.23;;;10.53;;
12445;SDS011;6287;50.984;7.022;2022-12-11T05:44:28;21.13;;;9.90;;
12445;SDS011;6287;50.984;7.022;2022-12-11T05:46:54;23.40;;;9.97;;
12445;SDS011;6287;50.984;7.022;2022-12-11T05:49:20;22.30;;;10.00;;
12445;SDS011;6287;50.984;7.022;2022-12-11T05:51:50;27.07;;;9.87;;
12445;SDS011;6287;50.984;7.022;2022-12-11T05:54:16;25.33;;;10.43;;
12445;SDS011;6287;50.984;7.022;2022-12-11T05:56:44;26.90;;;9.23;;
12445;SDS011;6287;50.984;7.022;2022-12-11T05:59:10;24.13;;;9.70;;
12445;SDS011;6287;50.984;7.022;2022-12-11T06:01:39;30.17;;;9.67;;
12445;SDS011;6287;50.984;7.022;2022-12-11T06:04:08;27.03;;;10.13;;
12445;SDS011;6287;50.984;7.022;2022-12-11T06:06:38;27.73;;;10.10;;
12445;SDS011;6287;50.984;7.022;2022-12-11T06:09:04;23.53;;;10.00;;
12445;SDS011;6287;50.984;7.022;2022-12-11T06:11:31;25.60;;;10.10;;
12445;SDS011;6287;50.984;7.022;2022-12-11T06:13:57;25.33;;;10.47;;
12445;SDS011;6287;50.984;7.022;2022-12-11T06:16:26;30.30;;;10.97;;
12445;SDS011;6287;50.984;7.022;2022-12-11T06:18:52;23.80;;;9.77;;
12445;SDS011;6287;50.984;7.022;2022-12-11T06:21:22;26.33;;;8.60;;
12445;SDS011;6287;50.984;7.022;2022-12-11T06:23:54;28.70;;;10.97;;
12445;SDS011;6287;50.984;7.022;2022-12-11T06:26:22;18.73;;;8.50;;
12445;SDS011;6287;50.984;7.022;2022-12-11T06:28:48;19.07;;;7.87;;
12445;SDS011;6287;50.984;7.022;2022-12-11T06:31:17;24.00;;;9.83;;
12445;SDS011;6287;50.984;7.022;2022-12-11T06:33:42;27.17;;;10.50;;
12445;SDS011;6287;50.984;7.022;2022-12-11T06:36:14;21.93;;;8.60;;
12445;SDS011;6287;50.984;7.022;2022-12-11T06:38:42;23.53;;;9.13;;
12445;SDS011;6287;50.984;7.022;2022-12-11T06:41:08;24.30;;;9.23;;
12445;SDS011;6287;50.984;7.022;2022-12-11T06:43:35;27.50;;;9.17;;
12445;SDS011;6287;50.984;7.022;2022-12-11T06:46:05;23.40;;;8.97;;
12445;SDS011;6287;50.984;7.022;2022-12-11T06:48:35;18.47;;;8.50;;
12445;SDS011;6287;50.984;7.022;2022-12-11T06:51:07;19.17;;;7.40;;
12445;SDS011;6287;50.984;7.022;2022-12-11T06:53:38;23.63;;;8.30;;
12445;SDS011;6287;50.984;7.022;2022-12-11T06:56:07;19.23;;;8.07;;
12445;SDS011;6287;50.984;7.022;2022-12-11T06:58:35;20.43;;;8.17;;
12445;SDS011;6287;50.984;7.022;2022-12-11T07:01:04;16.33;;;8.50;;
12445;SDS011;6287;50.984;7.022;2022-12-11T07:03:51;21.00;;;8.70;;
12445;SDS011;6287;50.984;7.022;2022-12-11T07:06:20;17.67;;;8.07;;
12445;SDS011;6287;50.984;7.022;2022-12-11T07:08:49;16.40;;;7.37;;
12445;SDS011;6287;50.984;7.022;2022-12-11T07:11:15;16.67;;;7.67;;
12445;SDS011;6287;50.984;7.022;2022-12-11T07:13:41;15.30;;;7.23;;
12445;SDS011;6287;50.984;7.022;2022-12-11T07:16:07;14.57;;;7.07;;
12445;SDS011;6287;50.984;7.022;2022-12-11T07:18:56;15.43;;;7.30;;
12445;SDS011;6287;50.984;7.022;2022-12-11T07:21:20;14.33;;;6.63;;
12445;SDS011;6287;50.984;7.022;2022-12-11T07:23:48;15.43;;;7.23;;
12445;SDS011;6287;50.984;7.022;2022-12-11T07:26:15;22.87;;;7.83;;
12445;SDS011;6287;50.984;7.022;2022-12-11T07:28:42;16.73;;;7.63;;
12445;SDS011;6287;50.984;7.022;2022-12-11T07:31:09;15.10;;;7.47;;
12445;SDS011;6287;50.984;7.022;2022-12-11T07:33:37;17.17;;;7.50;;
12445;SDS011;6287;50.984;7.022;2022-12-11T07:36:03;16.37;;;7.90;;
12445;SDS011;6287;50.984;7.022;2022-12-11T07:38:33;16.50;;;7.47;;
12445;SDS011;6287;50.984;7.022;2022-12-11T07:41:01;17.60;;;7.97;;
12445;SDS011;6287;50.984;7.022;2022-12-11T07:43:32;16.00;;;7.33;;
12445;SDS011;6287;50.984;7.022;2022-12-11T07:46:02;17.83;;;8.03;;
12445;SDS011;6287;50.984;7.022;2022-12-11T07:48:29;16.37;;;7.73;;
12445;SDS011;6287;50.984;7.022;2022-12-11T07:51:05;22.73;;;8.13;;
12445;SDS011;6287;50.984;7.022;2022-12-11T07:53:52;18.87;;;7.17;;
12445;SDS011;6287;50.984;7.022;2022-12-11T07:56:19;24.77;;;10.67;;
12445;SDS011;6287;50.984;7.022;2022-12-11T07:58:48;20.63;;;8.77;;
12445;SDS011;6287;50.984;7.022;2022-12-11T08:01:20;16.80;;;7.40;;
12445;SDS011;6287;50.984;7.022;2022-12-11T08:03:52;21.00;;;8.90;;
12445;SDS011;6287;50.984;7.022;2022-12-11T08:06:18;16.67;;;8.20;;
12445;SDS011;6287;50.984;7.022;2022-12-11T08:08:45;19.63;;;7.53;;
12445;SDS011;6287;50.984;7.022;2022-12-11T08:11:11;18.97;;;7.63;;
12445;SDS011;6287;50.984;7.022;2022-12-11T08:13:42;16.07;;;7.80;;
12445;SDS011;6287;50.984;7.022;2022-12-11T08:16:09;17.73;;;7.63;;
12445;SDS011;6287;50.984;7.022;2022-12-11T08:18:38;18.70;;;8.37;;
12445;SDS011;6287;50.984;7.022;2022-12-11T08:21:17;25.20;;;7.93;;
12445;SDS011;6287;50.984;7.022;2022-12-11T08:23:44;18.00;;;7.93;;
12445;SDS011;6287;50.984;7.022;2022-12-11T08:26:11;19.70;;;7.70;;
12445;SDS011;6287;50.984;7.022;2022-12-11T08:28:38;18.23;;;8.20;;
12445;SDS011;6287;50.984;7.022;2022-12-11T08:31:05;18.50;;;8.87;;
12445;SDS011;6287;50.984;7.022;2022-12-11T08:33:37;23.33;;;10.50;;
12445;SDS011;6287;50.984;7.022;2022-12-11T08:36:07;19.60;;;9.43;;
12445;SDS011;6287;50.984;7.022;2022-12-11T08:38:36;19.87;;;8.90;;
12445;SDS011;6287;50.984;7.022;2022-12-11T08:41:08;17.17;;;8.50;;
12445;SDS011;6287;50.984;7.022;2022-12-11T08:43:37;14.07;;;7.10;;
12445;SDS011;6287;50.984;7.022;2022-12-11T08:46:05;24.73;;;8.07;;
12445;SDS011;6287;50.984;7.022;2022-12-11T08:48:34;18.67;;;8.00;;
12445;SDS011;6287;50.984;7.022;2022-12-11T08:51:01;16.73;;;8.13;;
12445;SDS011;6287;50.984;7.022;2022-12-11T08:53:30;21.63;;;8.73;;
12445;SDS011;6287;50.984;7.022;2022-12-11T08:56:00;19.97;;;9.30;;
12445;SDS011;6287;50.984;7.022;2022-12-11T08:58:33;18.67;;;8.27;;
12445;SDS011;6287;50.984;7.022;2022-12-11T09:01:08;18.63;;;7.97;;
12445;SDS011;6287;50.984;7.022;2022-12-11T09:03:39;15.73;;;7.80;;
12445;SDS011;6287;50.984;7.022;2022-12-11T09:06:06;15.03;;;7.27;;
12445;SDS011;6287;50.984;7.022;2022-12-11T09:08:33;19.50;;;8.40;;
12445;SDS011;6287;50.984;7.022;2022-12-11T09:11:04;21.23;;;7.73;;
12445;SDS011;6287;50.984;7.022;2022-12-11T09:13:36;17.90;;;7.23;;
12445;SDS011;6287;50.984;7.022;2022-12-11T09:16:03;18.27;;;8.20;;
12445;SDS011;6287;50.984;7.022;2022-12-11T09:18:30;19.20;;;8.13;;
12445;SDS011;6287;50.984;7.022;2022-12-11T09:21:02;15.73;;;8.17;;
12445;SDS011;6287;50.984;7.022;2022-12-11T09:23:30;17.97;;;8.23;;
12445;SDS011;6287;50.984;7.022;2022-12-11T09:25:55;19.57;;;8.47;;
12445;SDS011;6287;50.984;7.022;2022-12-11T09:28:21;17.80;;;8.33;;
12445;SDS011;6287;50.984;7.022;2022-12-11T09:30:52;15.63;;;7.70;;
12445;SDS011;6287;50.984;7.022;2022-12-11T09:33:17;19.50;;;8.40;;
12445;SDS011;6287;50.984;7.022;2022-12-11T09:35:45;17.23;;;8.47;;
12445;SDS011;6287;50.984;7.022;2022-12-11T09:38:20;15.73;;;7.27;;
12445;SDS011;6287;50.984;7.022;2022-12-11T09:40:46;17.23;;;8.47;;
12445;SDS011;6287;50.984;7.022;2022-12-11T09:43:21;17.00;;;8.00;;
12445;SDS011;6287;50.984;7.022;2022-12-11T09:46:00;15.83;;;7.33;;
12445;SDS011;6287;50.984;7.022;2022-12-11T09:48:31;15.73;;;7.37;;
12445;SDS011;6287;50.984;7.022;2022-12-11T09:51:04;21.87;;;8.47;;
12445;SDS011;6287;50.984;7.022;2022-12-11T09:53:37;17.77;;;7.93;;
12445;SDS011;6287;50.984;7.022;2022-12-11T09:56:10;15.57;;;7.50;;
12445;SDS011;6287;50.984;7.022;2022-12-11T10:01:28;26.77;;;9.70;;
12445;SDS011;6287;50.984;7.022;2022-12-11T10:06:48;29.17;;;11.03;;
12445;SDS011;6287;50.984;7.022;2022-12-11T10:17:26;38.03;;;11.93;;
12445;SDS011;6287;50.984;7.022;2022-12-11T10:20:06;31.30;;;11.57;;
12445;SDS011;6287;50.984;7.022;2022-12-11T10:22:41;33.37;;;11.87;;
12445;SDS011;6287;50.984;7.022;2022-12-11T10:25:18;30.23;;;11.67;;
12445;SDS011;6287;50.984;7.022;2022-12-11T10:27:59;22.30;;;10.67;;
12445;SDS011;6287;50.984;7.022;2022-12-11T10:30:36;25.60;;;9.43;;
12445;SDS011;6287;50.984;7.022;2022-12-11T10:35:51;36.07;;;11.03;;
12445;SDS011;6287;50.984;7.022;2022-12-11T10:40:53;34.30;;;12.23;;
12445;SDS011;6287;50.984;7.022;2022-12-11T10:46:04;26.03;;;11.67;;
12445;SDS011;6287;50.984;7.022;2022-12-11T10:48:45;29.87;;;11.27;;
12445;SDS011;6287;50.984;7.022;2022-12-11T10:51:17;38.23;;;14.27;;
12445;SDS011;6287;50.984;7.022;2022-12-11T10:53:48;30.00;;;11.93;;
12445;SDS011;6287;50.984;7.022;2022-12-11T10:56:24;36.63;;;12.90;;
12445;SDS011;6287;50.984;7.022;2022-12-11T10:58:52;36.47;;;11.83;;
12445;SDS011;6287;50.984;7.022;2022-12-11T11:01:21;31.20;;;12.17;;
12445;SDS011;6287;50.984;7.022;2022-12-11T11:06:22;37.23;;;14.10;;
12445;SDS011;6287;50.984;7.022;2022-12-11T11:08:50;39.73;;;14.20;;
12445;SDS011;6287;50.984;7.022;2022-12-11T11:13:49;39.03;;;13.07;;
12445;SDS011;6287;50.984;7.022;2022-12-11T11:16:16;42.03;;;15.00;;
12445;SDS011;6287;50.984;7.022;2022-12-11T11:18:53;43.70;;;16.07;;
12445;SDS011;6287;50.984;7.022;2022-12-11T11:21:23;44.17;;;14.77;;
12445;SDS011;6287;50.984;7.022;2022-12-11T11:23:51;37.13;;;14.90;;
12445;SDS011;6287;50.984;7.022;2022-12-11T11:26:18;37.20;;;14.10;;
12445;SDS011;6287;50.984;7.022;2022-12-11T11:28:51;30.07;;;12.23;;
12445;SDS011;6287;50.984;7.022;2022-12-11T11:31:18;33.37;;;13.07;;
12445;SDS011;6287;50.984;7.022;2022-12-11T11:36:25;40.47;;;13.73;;
12445;SDS011;6287;50.984;7.022;2022-12-11T11:41:26;29.17;;;11.63;;
12445;SDS011;6287;50.984;7.022;2022-12-11T11:44:07;36.17;;;13.13;;
12445;SDS011;6287;50.984;7.022;2022-12-11T11:46:40;27.93;;;10.77;;
12445;SDS011;6287;50.984;7.022;2022-12-11T11:52:08;30.10;;;11.97;;
12445;SDS011;6287;50.984;7.022;2022-12-11T11:57:18;32.57;;;10.87;;
12445;SDS011;6287;50.984;7.022;2022-12-11T12:00:14;27.60;;;11.43;;
12445;SDS011;6287;50.984;7.022;2022-12-11T12:02:41;26.10;;;10.73;;
12445;SDS011;6287;50.984;7.022;2022-12-11T12:05:13;31.67;;;10.07;;
12445;SDS011;6287;50.984;7.022;2022-12-11T12:07:47;30.23;;;10.77;;
12445;SDS011;6287;50.984;7.022;2022-12-11T12:13:00;27.87;;;10.73;;
12445;SDS011;6287;50.984;7.022;2022-12-11T12:15:44;29.23;;;11.03;;
12445;SDS011;6287;50.984;7.022;2022-12-11T12:21:08;24.87;;;9.77;;
12445;SDS011;6287;50.984;7.022;2022-12-11T12:26:33;24.17;;;9.40;;
12445;SDS011;6287;50.984;7.022;2022-12-11T12:32:08;20.70;;;9.07;;
12445;SDS011;6287;50.984;7.022;2022-12-11T12:35:21;20.27;;;9.20;;
12445;SDS011;6287;50.984;7.022;2022-12-11T12:48:40;21.50;;;8.63;;
12445;SDS011;6287;50.984;7.022;2022-12-11T12:51:08;19.63;;;9.23;;
12445;SDS011;6287;50.984;7.022;2022-12-11T12:53:42;19.07;;;8.53;;
12445;SDS011;6287;50.984;7.022;2022-12-11T12:56:17;23.50;;;8.57;;
12445;SDS011;6287;50.984;7.022;2022-12-11T12:58:44;23.13;;;9.20;;
12445;SDS011;6287;50.984;7.022;2022-12-11T13:06:36;22.73;;;9.23;;
12445;SDS011;6287;50.984;7.022;2022-12-11T13:09:20;26.03;;;9.27;;
12445;SDS011;6287;50.984;7.022;2022-12-11T13:11:52;24.40;;;8.60;;
12445;SDS011;6287;50.984;7.022;2022-12-11T13:14:30;27.13;;;10.13;;
12445;SDS011;6287;50.984;7.022;2022-12-11T13:17:43;22.47;;;8.50;;
12445;SDS011;6287;50.984;7.022;2022-12-11T13:19:44;18.60;;;8.13;;
12445;SDS011;6287;50.984;7.022;2022-12-11T13:27:40;20.93;;;8.07;;
12445;SDS011;6287;50.984;7.022;2022-12-11T13:32:40;23.30;;;9.23;;
12445;SDS011;6287;50.984;7.022;2022-12-11T13:35:14;18.40;;;8.33;;
12445;SDS011;6287;50.984;7.022;2022-12-11T13:37:42;23.87;;;8.53;;
12445;SDS011;6287;50.984;7.022;2022-12-11T13:40:20;20.30;;;8.60;;
12445;SDS011;6287;50.984;7.022;2022-12-11T13:42:56;21.37;;;8.40;;
12445;SDS011;6287;50.984;7.022;2022-12-11T13:45:28;19.33;;;8.53;;
12445;SDS011;6287;50.984;7.022;2022-12-11T13:48:15;15.30;;;6.80;;
12445;SDS011;6287;50.984;7.022;2022-12-11T13:50:52;23.37;;;9.20;;
12445;SDS011;6287;50.984;7.022;2022-12-11T13:53:22;19.50;;;7.63;;
12445;SDS011;6287;50.984;7.022;2022-12-11T13:58:21;24.03;;;8.23;;
12445;SDS011;6287;50.984;7.022;2022-12-11T14:01:05;21.97;;;8.27;;
12445;SDS011;6287;50.984;7.022;2022-12-11T14:03:35;20.83;;;8.27;;
12445;SDS011;6287;50.984;7.022;2022-12-11T14:06:04;20.53;;;8.73;;
12445;SDS011;6287;50.984;7.022;2022-12-11T14:08:37;19.10;;;8.17;;
12445;SDS011;6287;50.984;7.022;2022-12-11T14:11:06;16.13;;;6.93;;
12445;SDS011;6287;50.984;7.022;2022-12-11T14:13:36;23.50;;;8.83;;
12445;SDS011;6287;50.984;7.022;2022-12-11T14:16:04;20.03;;;7.97;;
12445;SDS011;6287;50.984;7.022;2022-12-11T14:18:34;18.33;;;8.17;;
12445;SDS011;6287;50.984;7.022;2022-12-11T14:21:03;19.17;;;7.90;;
12445;SDS011;6287;50.984;7.022;2022-12-11T14:23:33;20.80;;;9.20;;
12445;SDS011;6287;50.984;7.022;2022-12-11T14:26:02;17.27;;;8.03;;
12445;SDS011;6287;50.984;7.022;2022-12-11T14:28:40;23.27;;;8.53;;
12445;SDS011;6287;50.984;7.022;2022-12-11T14:31:07;18.40;;;8.90;;
12445;SDS011;6287;50.984;7.022;2022-12-11T14:33:34;22.20;;;9.10;;
12445;SDS011;6287;50.984;7.022;2022-12-11T14:36:04;17.23;;;7.80;;
12445;SDS011;6287;50.984;7.022;2022-12-11T14:41:04;24.43;;;8.93;;
12445;SDS011;6287;50.984;7.022;2022-12-11T14:43:42;22.90;;;8.47;;
12445;SDS011;6287;50.984;7.022;2022-12-11T14:46:16;17.97;;;7.87;;
12445;SDS011;6287;50.984;7.022;2022-12-11T14:48:55;17.90;;;7.50;;
12445;SDS011;6287;50.984;7.022;2022-12-11T14:51:28;18.50;;;8.03;;
12445;SDS011;6287;50.984;7.022;2022-12-11T14:53:59;16.67;;;9.23;;
12445;SDS011;6287;50.984;7.022;2022-12-11T14:56:28;18.77;;;8.03;;
12445;SDS011;6287;50.984;7.022;2022-12-11T14:58:59;18.77;;;7.97;;
12445;SDS011;6287;50.984;7.022;2022-12-11T15:01:31;22.97;;;8.07;;
12445;SDS011;6287;50.984;7.022;2022-12-11T15:06:45;21.00;;;8.67;;
12445;SDS011;6287;50.984;7.022;2022-12-11T15:09:18;17.07;;;8.03;;
12445;SDS011;6287;50.984;7.022;2022-12-11T15:11:57;17.10;;;7.90;;
12445;SDS011;6287;50.984;7.022;2022-12-11T15:14:32;17.13;;;8.73;;
12445;SDS011;6287;50.984;7.022;2022-12-11T15:16:58;19.13;;;8.07;;
12445;SDS011;6287;50.984;7.022;2022-12-11T15:19:27;20.40;;;8.20;;
12445;SDS011;6287;50.984;7.022;2022-12-11T15:22:00;17.37;;;8.20;;
12445;SDS011;6287;50.984;7.022;2022-12-11T15:24:39;26.07;;;9.07;;
12445;SDS011;6287;50.984;7.022;2022-12-11T15:29:45;21.70;;;9.27;;
12445;SDS011;6287;50.984;7.022;2022-12-11T15:39:48;20.13;;;8.17;;
12445;SDS011;6287;50.984;7.022;2022-12-11T15:42:23;20.67;;;8.10;;
12445;SDS011;6287;50.984;7.022;2022-12-11T15:44:57;25.83;;;8.90;;
12445;SDS011;6287;50.984;7.022;2022-12-11T15:47:30;21.07;;;9.13;;
12445;SDS011;6287;50.984;7.022;2022-12-11T15:49:57;20.10;;;8.50;;
12445;SDS011;6287;50.984;7.022;2022-12-11T15:52:28;20.87;;;9.23;;
12445;SDS011;6287;50.984;7.022;2022-12-11T15:54:54;21.40;;;9.20;;
12445;SDS011;6287;50.984;7.022;2022-12-11T15:57:26;21.80;;;8.33;;
12445;SDS011;6287;50.984;7.022;2022-12-11T15:59:54;16.63;;;7.97;;
12445;SDS011;6287;50.984;7.022;2022-12-11T16:02:23;20.60;;;9.27;;
12445;SDS011;6287;50.984;7.022;2022-12-11T16:04:52;23.33;;;9.47;;
12445;SDS011;6287;50.984;7.022;2022-12-11T16:07:23;16.60;;;7.43;;
12445;SDS011;6287;50.984;7.022;2022-12-11T16:09:52;21.83;;;8.87;;
12445;SDS011;6287;50.984;7.022;2022-12-11T16:12:23;20.53;;;8.50;;
12445;SDS011;6287;50.984;7.022;2022-12-11T16:14:49;25.60;;;10.30;;
12445;SDS011;6287;50.984;7.022;2022-12-11T16:17:16;22.00;;;8.57;;
12445;SDS011;6287;50.984;7.022;2022-12-11T16:19:43;21.70;;;9.10;;
12445;SDS011;6287;50.984;7.022;2022-12-11T16:22:09;19.70;;;8.23;;
12445;SDS011;6287;50.984;7.022;2022-12-11T16:24:36;22.80;;;8.70;;
12445;SDS011;6287;50.984;7.022;2022-12-11T16:27:05;21.23;;;9.20;;
12445;SDS011;6287;50.984;7.022;2022-12-11T16:29:38;23.30;;;9.23;;
12445;SDS011;6287;50.984;7.022;2022-12-11T16:32:06;22.53;;;9.13;;
12445;SDS011;6287;50.984;7.022;2022-12-11T16:34:33;21.67;;;9.30;;
12445;SDS011;6287;50.984;7.022;2022-12-11T16:37:01;19.40;;;8.23;;
12445;SDS011;6287;50.984;7.022;2022-12-11T16:39:27;20.33;;;8.50;;
12445;SDS011;6287;50.984;7.022;2022-12-11T16:41:55;25.37;;;9.93;;
12445;SDS011;6287;50.984;7.022;2022-12-11T16:44:25;21.63;;;8.43;;
12445;SDS011;6287;50.984;7.022;2022-12-11T16:46:51;17.73;;;8.17;;
12445;SDS011;6287;50.984;7.022;2022-12-11T16:49:20;22.73;;;9.37;;
12445;SDS011;6287;50.984;7.022;2022-12-11T16:51:48;22.10;;;8.47;;
12445;SDS011;6287;50.984;7.022;2022-12-11T16:54:14;17.57;;;8.00;;
12445;SDS011;6287;50.984;7.022;2022-12-11T16:56:42;22.83;;;7.90;;
12445;SDS011;6287;50.984;7.022;2022-12-11T16:59:09;20.83;;;8.27;;